logo
Search for airport 
image banner adimage banner adimage banner ad
image banner ad

FAEMOY - Emoyeni

Located in , South Africa

ICAO - , IATA -

Data provided by Airmate  

General information

Coordinates: S29°44'55" E30°33'1"
Elevation is 2351 feet MSL.
 
View others Airports in Kwazulu-Natal

Operational data

Special qualification required
Current time UTC:
Current local time:
Weather at : FAPM - Pietermaritzburg ( 19 km )
TAF: TAF FAPM 241800Z 2419/2506 VRB03KT CAVOK TX12/2419Z TN04/2503Z PROB30 TEMPO 2423/2504 4000 BR NSC
View NOTAMs / SUP AIP / TFR affecting this airport [VIEW]
Communications frequencies: [VIEW]

Runways:

RWY identifierQFULength (ft)Width (ft)SurfaceLDA (ft)
15129°200166GRASS
33309°200166GRASS
02177°182149GRASS
20357°182149GRASS

Airport contact information

Address: South Africa

Satellite view of FAEMOY